• Join FlightAware (Why Join?)
  • Login
  • US Flag 
03:17PM EDT


 

Airport Tracker/Info


-or-


 

Live Flight TrackerFlight Track Log ✈ N10933 ✈ 06-May-2013 ✈ CYCH - KBTV

Flight Track Log - Related Links

Times and Time Zones

All times are in EDT time to prevent confusion due to time zone crossing. See the N10933 flight status page for this flight to view local times or setup timezone preferences in your user account.

Time Position Orientation Groundspeed Altitude Reporting Facility
EDT Latitude Longitude Course Direction KTS MPH feet Rate Location/Type
01:50PM 46.4611 -67.3161 248° West 186 214 12,600  Level Boston Center
01:52PM 46.4338 -67.4053 246° West  Level FlightAware Approximate
01:54PM 46.3667 -67.6000 246° West 190 219 12,600  Level Moncton Center
01:55PM 46.3101 -67.8080 248° West  Level Estimated
01:55PM 46.3500 -67.6667 250° West 180 207 12,600  Level Moncton Center
01:56PM 46.3342 -67.7217 247° West 181 208 12,600  Level Boston Center
01:57PM 46.3139 -67.7864 246° West 181 208 12,600  Level Boston Center
01:59PM 46.3358 -67.7219 246° West  Level FlightAware Approximate
01:59PM 46.2500 -67.9333 238° Southwest 190 219 12,600  Level Moncton Center
02:01PM 46.2306 -68.0544 257° West 181 208 12,600  Level Boston Center
02:04PM 46.2031 -68.1414 246° West  Level FlightAware Approximate
02:05PM 46.1444 -68.3250 246° West 181 208 12,600  Level Boston Center
02:06PM 46.1239 -68.3922 246° West 181 208 12,600  Level Boston Center
02:07PM 46.1033 -68.4597 246° West 181 208 12,600  Level Boston Center
02:09PM 46.0500 -68.6167 244° Southwest 190 219 12,600  Level Moncton Center
02:10PM 46.0167 -68.6667 226° Southwest 180 207 12,600  Level Moncton Center
02:11PM 46.0125 -68.7381 265° West 181 208 12,600  Level Boston Center
02:13PM 45.9689 -68.8692 244° Southwest 181 208 12,600  Level Boston Center
02:14PM 45.9481 -68.9392 247° West 186 214 12,600  Level Boston Center
02:15PM 45.9250 -69.0064 244° Southwest 186 214 12,600 -60 Level Boston Center
02:16PM 45.9042 -69.0761 247° West 186 214 12,500 -60 Descending Boston Center
02:17PM 45.8808 -69.1403 242° Southwest 186 214 12,500  Level Boston Center
02:18PM 45.8600 -69.2069 246° West 186 214 12,600  Climbing Boston Center
02:19PM 45.8386 -69.2708 244° Southwest 186 214 12,600  Level Boston Center
02:21PM 45.7964 -69.4042 246° West 181 208 12,600  Level Boston Center
02:22PM 45.7667 -69.4667 236° Southwest 180 207 12,600  Level Moncton Center
02:23PM 45.7333 -69.5500 240° Southwest 180 207 12,600  Level Moncton Center
02:24PM 45.7167 -69.6000 244° Southwest 180 207 12,600  Level Moncton Center
02:25PM 45.7000 -69.6667 250° West 180 207 12,700  Climbing Moncton Center
02:27PM 45.6644 -69.8031 250° West 181 208 12,700  Level Boston Center
02:28PM 45.6411 -69.8694 243° Southwest 181 208 12,700 -60 Level Boston Center
02:29PM 45.6175 -69.9358 243° Southwest 181 208 12,600  Descending Boston Center
02:30PM 45.5958 -69.9992 244° Southwest 181 208 12,700  Climbing Boston Center
02:32PM 45.5547 -70.1225 245° Southwest 181 208 12,700 -60 Level Boston Center
02:34PM 45.5092 -70.2517 243° Southwest 181 208 12,600  Descending Boston Center
02:35PM 45.4875 -70.3147 244° Southwest 181 208 12,700  Climbing Boston Center
02:36PM 45.4658 -70.3806 245° Southwest 181 208 12,700  Level Boston Center
02:37PM 45.4419 -70.4436 242° Southwest 181 208 12,700  Level Boston Center
02:38PM 45.4181 -70.5094 243° Southwest 181 208 12,700 -300 Level Boston Center
02:40PM 45.3744 -70.6439 245° Southwest 181 208 11,800 -420 Descending Boston Center
02:41PM 45.3464 -70.7275 245° Southwest 186 214 11,400 -300 Descending Boston Center
02:43PM 45.2786 -70.7735 205° Southwest  Level FlightAware Approximate
02:43PM 45.2983 -70.8644 205° Southwest 191 220 11,000  Level Boston Center
02:44PM 45.2722 -70.9272 239° Southwest 196 226 11,000 -240 Level Boston Center
02:45PM 45.2522 -70.9925 247° West 196 226 10,600 -300 Descending Boston Center
02:46PM 45.2281 -71.0608 243° Southwest 196 226 10,400 -300 Descending Boston Center
02:47PM 45.2061 -71.1381 248° West 196 226 10,100 -240 Descending Boston Center
02:48PM 45.1817 -71.2033 242° Southwest 191 220 10,000 -240 Descending Boston Center
02:49PM 45.1594 -71.2686 244° Southwest 191 220 9,700 -360 Descending Boston Center
02:50PM 45.1331 -71.3308 239° Southwest 191 220 9,300 -120 Descending Boston Center
02:52PM 45.0833 -71.4667 243° Southwest 180 207 9,400  Climbing Moncton Center
02:53PM 45.0658 -71.5172 244° Southwest 181 208 9,400 -120 Level Boston Center
02:54PM 45.0436 -71.5822 244° Southwest 181 208 9,200 -180 Descending Boston Center
02:55PM 45.0211 -71.6444 243° Southwest 181 208 9,100 -180 Descending Boston Center
02:56PM 44.9964 -71.7092 242° Southwest 181 208 8,900 -300 Descending Boston Center
02:57PM 44.9739 -71.7742 244° Southwest 181 208 8,600 -300 Descending Boston Center
02:59PM 44.9283 -71.8744 237° Southwest  Level FlightAware Approximate
02:59PM 44.9267 -71.9006 237° Southwest 181 208 8,100  Level Boston Center
03:01PM 44.8811 -72.0014 244° Southwest  Level FlightAware Approximate
03:02PM 44.8586 -72.0886 244° Southwest 181 208 7,600  Level Boston Center
03:03PM 44.8358 -72.1503 243° Southwest 181 208 7,400 -240 Descending Boston Center
03:04PM 44.8131 -72.2147 244° Southwest 181 208 7,200 -300 Descending Boston Center
03:05PM 44.7903 -72.2733 241° Southwest 181 208 6,900 -300 Descending Boston Center
03:06PM 44.7697 -72.3319 244° Southwest 181 208 6,700 -240 Descending Boston Center
03:07PM 44.7489 -72.3961 245° Southwest 181 208 6,500  Descending Boston Center
03:09PM 44.7175 -72.5247 251° West 176 203 6,700 -180 Climbing Boston Center
03:10PM 44.7050 -72.5919 255° West 176 203 6,100 -600 Descending Boston Center
03:11PM 44.6925 -72.6619 256° West 181 208 5,600 -420 Descending Boston Center
03:12PM 44.6797 -72.7292 255° West 181 208 5,300 -540 Descending Boston Center
03:13PM 44.6650 -72.7992 254° West 181 208 4,600 -600 Descending Boston Center
03:14PM 44.6500 -72.8631 252° West 181 208 4,200 -600 Descending Boston Center
03:15PM 44.6333 -72.9272 250° West 181 208 3,400 -660 Descending Boston Center
03:17PM 44.5869 -73.0406 240° Southwest 176 203 2,300 -480 Descending Boston Center
03:18PM 44.5617 -73.0928 236° Southwest 168 193 2,100 -300 Descending Boston Center
03:20PM 44.5156 -73.1475 220° Southwest 119 137 1,500 -480 Descending Boston Center
03:22PM 44.4694 -73.1528 185° South 82 94 400 -600 Descending Boston Center
03:24PM 44.4719 -73.1533 352° North  Level Estimated
03:31PM 44.4719 -73.1533 55° Northeast  Level Estimated
03:32PM 44.4719 -73.1533 55° Northeast  Level Estimated
03:33PM 44.4719 -73.1533 55° Northeast  Level Estimated
03:34PM 44.4719 -73.1533 55° Northeast  Level Estimated
03:35PM 44.4719 -73.1533 55° Northeast  Level Estimated
03:36PM 44.4719 -73.1533 55° Northeast  Level Estimated
03:37PM 44.4719 -73.1533 55° Northeast  Level Estimated
03:38PM 44.4719 -73.1533 55° Northeast  Level Estimated
03:39PM 44.4719 -73.1533 55° Northeast  Level Estimated